Airfield :
LOGIN :

Register | Disclaimer

   EN    FR    IT 

 










Legend :    VFR   Marginal VFR   IFR   Intensive IFR   Very Intensive IFR
Visi :
Ceiling :
>= 8 km
>= 3000ft
5 to 8 km
1000 to 3000 ft
1500m to 5 km
500 to 1000 ft
800 to 1500m
200 to 500 ft
< 800m
< 200 ft
Symbols :   Thunderstorms  Fog  Heavy snow  Heavy precipitations  Wind > 20 kt
SIGMETs :     Misc.  Thunderstorms  Icing  Turbulence  Mountain Waves  Volcanic Ashes






- Airport Elevation : 290 ft
- IATA code : LAI


LFRO - Lannion

CURRENT METAR :
  • 110000Z AUTO 28008KT 9999 BKN031 BKN038 BKN045 09/05 Q1013

EXPIRED METARs :
  • 102330Z AUTO 28010KT 9999 FEW030 SCT052 BKN190 08/05 Q1013
  • 102300Z AUTO 28011KT 9999 FEW035 BKN088 OVC170 09/05 Q1013
  • 102230Z AUTO 27010KT 9999 SCT026 SCT032 OVC086 09/06 Q1013
  • 102200Z AUTO 27010KT 9999 FEW024/// BKN033/// OVC042/// ///TCU 09/07 Q1013
  • 102130Z AUTO 27010KT 9999 -RA FEW019/// BKN036/// BKN046/// ///TCU 09/07 Q1013

Expired Forecast.



MET'MAP, your aeronautical weather chart ! - Copyright ORBIFLY December 2007 - Disclaimer

ORBIFLY MET'MAP TEAM :

Programming & Development : Alexandra Zaïnal
Concept & original design : Baudouin d'Aumeries
Assistance for programming : Marc-Olivier Méhu
Technical & hardware support : Manuel Goepfert

Contact : metmap@orbifly.com




SOURCES & CREDITS :

   NOAA